Time;durP1;ratioP1;P1;durP2;ratioP2;P2;SDS_P1;SDS_P2;PMS_P1;PMS_P2;Temp;Humidity;BMP_temperature;BMP_pressure;BME280_temperature;BME280_humidity;BME280_pressure;Samples;Min_cycle;Max_cycle;Signal;HPM_P1;HPM_P2
2021/08/12 00:04:21;;;;;;;4.45;3.00;;;21.80;68.30;;;;;;10415754;28;20065;-57
2021/08/12 00:09:21;;;;;;;4.88;3.42;;;21.80;68.30;;;;;;10434039;28;20025;-57
2021/08/12 00:14:22;;;;;;;4.40;4.00;;;21.80;68.30;;;;;;10418339;28;20590;-57
2021/08/12 00:19:23;;;;;;;4.40;2.80;;;21.80;68.30;;;;;;10417851;28;20084;-56
2021/08/12 00:24:24;;;;;;;3.67;3.33;;;21.70;68.20;;;;;;10417337;28;20037;-56
2021/08/12 00:29:24;;;;;;;5.35;3.85;;;21.80;68.20;;;;;;10418165;28;20038;-56
2021/08/12 00:34:25;;;;;;;4.10;3.22;;;21.70;68.10;;;;;;10426726;28;20060;-57
2021/08/12 00:39:26;;;;;;;4.65;3.53;;;21.80;68.10;;;;;;10417359;28;20120;-57
2021/08/12 00:44:26;;;;;;;5.40;3.30;;;21.70;68.00;;;;;;10417175;28;20061;-56
2021/08/12 00:49:27;;;;;;;3.92;2.80;;;21.70;68.10;;;;;;10417331;28;20049;-57
2021/08/12 00:54:28;;;;;;;3.78;3.17;;;21.70;67.90;;;;;;10416680;28;20091;-56
2021/08/12 00:59:37;;;;;;;5.47;3.65;;;21.70;67.90;;;;;;10405538;28;20157;-56
2021/08/12 01:04:48;;;;;;;4.78;3.40;;;21.70;67.80;;;;;;10414396;28;20489;-57
2021/08/12 01:10:16;;;;;;;4.18;3.35;;;21.70;67.80;;;;;;10415946;28;20533;-57
2021/08/12 01:15:27;;;;;;;4.55;3.40;;;21.70;67.70;;;;;;10414885;28;20025;-56
2021/08/12 01:20:39;;;;;;;4.18;3.40;;;21.70;67.70;;;;;;10430649;28;20033;-56
2021/08/12 01:25:44;;;;;;;4.70;3.90;;;21.70;67.60;;;;;;10429023;28;20087;-57
2021/08/12 01:31:15;;;;;;;6.25;3.60;;;21.60;67.60;;;;;;10415950;28;20083;-56
2021/08/12 01:36:17;;;;;;;5.28;3.85;;;21.70;67.50;;;;;;10419987;28;20037;-57
2021/08/12 01:41:20;;;;;;;4.00;3.08;;;21.60;67.40;;;;;;10430150;28;20073;-56
2021/08/12 01:46:25;;;;;;;4.40;3.75;;;21.60;67.40;;;;;;10415035;28;20355;-57
2021/08/12 01:51:27;;;;;;;4.20;3.47;;;21.60;67.40;;;;;;10413228;28;20038;-57
2021/08/12 01:56:29;;;;;;;4.30;3.50;;;21.60;67.60;;;;;;10414715;28;20482;-56
2021/08/12 02:01:30;;;;;;;3.67;3.30;;;21.60;67.30;;;;;;10416716;28;20065;-56
2021/08/12 02:06:36;;;;;;;5.78;3.45;;;21.60;67.30;;;;;;10413342;28;20052;-57
2021/08/12 02:11:38;;;;;;;4.97;3.30;;;21.60;67.30;;;;;;10421359;28;20033;-57
2021/08/12 02:16:38;;;;;;;4.82;3.40;;;21.60;67.30;;;;;;10403692;28;20470;-56
2021/08/12 02:21:47;;;;;;;4.82;3.65;;;21.60;67.40;;;;;;10413987;28;20038;-56
2021/08/12 02:26:56;;;;;;;4.27;3.43;;;21.60;67.90;;;;;;10414156;28;20555;-57
2021/08/12 02:31:59;;;;;;;4.63;3.38;;;21.60;67.30;;;;;;10423263;28;20029;-57
2021/08/12 02:37:06;;;;;;;5.40;3.58;;;21.60;67.40;;;;;;10414853;28;20033;-56
2021/08/12 02:42:09;;;;;;;4.30;3.60;;;21.60;67.30;;;;;;10428965;28;20513;-57
2021/08/12 02:47:12;;;;;;;4.82;3.28;;;21.50;67.30;;;;;;10432001;28;20456;-57
2021/08/12 02:52:15;;;;;;;4.68;3.40;;;21.50;67.30;;;;;;10421638;28;20112;-57
2021/08/12 02:57:16;;;;;;;4.32;3.53;;;21.50;67.30;;;;;;10436852;28;20064;-56
2021/08/12 03:02:19;;;;;;;4.57;3.33;;;21.50;67.30;;;;;;10421355;28;20030;-57
2021/08/12 03:07:22;;;;;;;4.15;3.40;;;21.50;67.20;;;;;;10420891;28;20041;-56
2021/08/12 03:12:23;;;;;;;3.80;2.70;;;21.50;67.10;;;;;;10419784;28;20029;-56
2021/08/12 03:17:25;;;;;;;4.35;3.40;;;21.50;67.20;;;;;;10420715;28;20441;-57
2021/08/12 03:22:26;;;;;;;3.15;2.75;;;21.50;67.10;;;;;;10420468;28;20039;-56
2021/08/12 03:27:27;;;;;;;4.75;3.20;;;21.50;67.10;;;;;;10420225;28;20434;-57
2021/08/12 03:32:27;;;;;;;6.68;3.88;;;21.50;67.10;;;;;;10432169;28;20477;-56
2021/08/12 03:37:28;;;;;;;4.38;3.55;;;21.50;67.10;;;;;;10419623;28;20029;-56
2021/08/12 03:42:29;;;;;;;4.20;3.00;;;21.50;66.90;;;;;;10419487;28;20046;-56
2021/08/12 03:47:31;;;;;;;3.92;3.35;;;21.50;67.00;;;;;;10419434;28;20112;-57
2021/08/12 03:52:32;;;;;;;4.00;3.45;;;21.40;67.00;;;;;;10419233;28;20049;-56
2021/08/12 03:57:32;;;;;;;4.40;3.17;;;21.50;66.90;;;;;;10416527;28;20124;-56
2021/08/12 04:02:33;;;;;;;4.03;3.17;;;21.50;66.90;;;;;;10417404;28;20088;-56
2021/08/12 04:07:34;;;;;;;4.95;3.80;;;21.40;66.90;;;;;;10418536;28;20049;-56
2021/08/12 04:12:35;;;;;;;3.92;3.20;;;21.40;66.90;;;;;;10416711;28;20030;-56
2021/08/12 04:17:35;;;;;;;4.10;3.30;;;21.40;66.80;;;;;;10415601;28;20064;-57
2021/08/12 04:22:36;;;;;;;4.75;3.45;;;21.40;66.80;;;;;;10418371;28;20021;-56
2021/08/12 04:27:38;;;;;;;4.32;3.35;;;21.40;66.80;;;;;;10417648;28;20041;-57
2021/08/12 04:32:39;;;;;;;5.13;3.22;;;21.40;66.80;;;;;;10428540;28;20080;-57
2021/08/12 04:37:44;;;;;;;3.40;2.90;;;21.40;66.80;;;;;;10405337;28;20033;-57
2021/08/12 04:42:47;;;;;;;3.78;3.30;;;21.40;66.70;;;;;;10408496;28;20072;-57
2021/08/12 04:47:49;;;;;;;4.55;3.50;;;21.40;66.70;;;;;;10397179;28;20029;-57
2021/08/12 04:52:49;;;;;;;5.75;3.60;;;21.40;66.70;;;;;;10415234;28;20497;-57
2021/08/12 04:57:50;;;;;;;3.70;3.30;;;21.40;66.80;;;;;;10415669;28;20057;-56
2021/08/12 05:02:52;;;;;;;3.88;3.15;;;21.30;66.70;;;;;;10417622;28;20382;-57
2021/08/12 05:07:53;;;;;;;6.15;3.50;;;21.30;66.90;;;;;;10413032;28;20048;-57
2021/08/12 05:12:53;;;;;;;8.02;3.65;;;21.40;67.10;;;;;;10412829;28;20061;-57
2021/08/12 05:17:54;;;;;;;5.40;3.42;;;21.40;67.40;;;;;;10414699;28;20037;-57
2021/08/12 05:22:55;;;;;;;8.98;3.92;;;21.40;67.20;;;;;;10414586;28;20083;-57
2021/08/12 05:27:56;;;;;;;7.03;3.92;;;21.50;67.60;;;;;;10415470;28;20053;-53
2021/08/12 05:32:57;;;;;;;8.45;4.20;;;21.50;67.70;;;;;;10426759;28;20064;-57
2021/08/12 05:37:58;;;;;;;9.75;3.97;;;21.50;67.90;;;;;;10415098;28;20435;-57
2021/08/12 05:42:59;;;;;;;6.57;4.63;;;21.50;67.90;;;;;;10412816;28;20065;-55
2021/08/12 05:47:59;;;;;;;4.68;3.88;;;21.50;68.00;;;;;;10414074;28;20075;-56
2021/08/12 05:53:00;;;;;;;10.07;4.05;;;21.50;67.90;;;;;;10411025;28;20025;-57
2021/08/12 05:58:00;;;;;;;7.35;4.80;;;21.50;67.70;;;;;;10413528;28;20116;-57
2021/08/12 06:03:09;;;;;;;8.02;4.60;;;21.40;67.60;;;;;;10413926;28;20069;-55
2021/08/12 06:08:11;;;;;;;8.82;4.25;;;21.40;67.60;;;;;;10411960;28;20496;-55
2021/08/12 06:13:12;;;;;;;8.30;4.18;;;21.50;67.70;;;;;;10399101;28;20086;-54
2021/08/12 06:18:14;;;;;;;8.20;4.28;;;21.40;67.70;;;;;;10411244;28;20124;-55
2021/08/12 06:23:15;;;;;;;6.95;4.30;;;21.40;67.70;;;;;;10432095;28;20113;-54
2021/08/12 06:28:16;;;;;;;6.03;4.53;;;21.40;67.90;;;;;;10419795;28;20529;-55
2021/08/12 06:33:17;;;;;;;7.32;4.63;;;21.40;67.80;;;;;;10428085;28;20406;-55
2021/08/12 06:38:17;;;;;;;8.63;4.78;;;21.40;67.90;;;;;;10422002;28;20039;-54
2021/08/12 06:43:18;;;;;;;6.85;4.50;;;21.40;67.80;;;;;;10421226;28;20440;-55
2021/08/12 06:48:19;;;;;;;6.45;4.93;;;21.40;67.80;;;;;;10421449;28;20079;-53
2021/08/12 06:53:20;;;;;;;10.57;5.68;;;21.40;67.90;;;;;;10421397;28;20116;-54
2021/08/12 06:58:20;;;;;;;7.70;5.32;;;21.40;68.00;;;;;;10408103;28;20108;-54
2021/08/12 07:03:21;;;;;;;8.15;5.60;;;21.40;67.80;;;;;;10421113;28;20080;-54
2021/08/12 07:08:21;;;;;;;7.47;4.47;;;21.40;68.00;;;;;;10420051;28;20053;-54
2021/08/12 07:13:22;;;;;;;9.07;4.35;;;21.40;68.70;;;;;;10420413;28;20087;-55
2021/08/12 07:18:23;;;;;;;14.63;4.70;;;21.40;68.20;;;;;;10420630;28;20053;-55
2021/08/12 07:23:24;;;;;;;6.03;4.68;;;21.30;68.10;;;;;;10419404;28;20108;-55
2021/08/12 07:28:24;;;;;;;6.45;4.40;;;21.30;68.20;;;;;;10420338;28;20049;-55
2021/08/12 07:33:25;;;;;;;7.50;5.25;;;21.40;68.20;;;;;;10429391;28;20061;-55
2021/08/12 07:38:26;;;;;;;6.85;5.68;;;21.40;67.80;;;;;;10417854;28;20485;-54
2021/08/12 07:43:28;;;;;;;6.75;5.18;;;21.40;67.80;;;;;;10419260;28;20104;-55
2021/08/12 07:48:28;;;;;;;11.40;6.47;;;21.40;67.90;;;;;;10417559;28;20030;-55
2021/08/12 07:53:29;;;;;;;14.02;5.50;;;21.40;67.90;;;;;;10419184;28;20534;-56
2021/08/12 07:58:30;;;;;;;8.90;5.10;;;21.40;67.80;;;;;;10419255;28;20035;-55
2021/08/12 08:03:31;;;;;;;8.70;5.68;;;21.40;67.90;;;;;;10418492;28;20032;-55
2021/08/12 08:08:31;;;;;;;8.70;4.50;;;21.40;67.80;;;;;;10418623;28;20064;-55
2021/08/12 08:13:33;;;;;;;7.90;4.93;;;21.40;67.90;;;;;;10418826;28;20065;-56
2021/08/12 08:18:33;;;;;;;8.35;4.18;;;21.40;67.90;;;;;;10417921;28;20029;-56
2021/08/12 08:23:34;;;;;;;8.95;5.57;;;21.40;68.00;;;;;;10417768;28;20038;-55
2021/08/12 08:28:34;;;;;;;5.88;5.03;;;21.50;67.90;;;;;;10417610;28;20512;-55
2021/08/12 08:33:36;;;;;;;7.82;4.75;;;21.50;67.90;;;;;;10425429;28;20111;-55
2021/08/12 08:38:37;;;;;;;7.10;4.45;;;21.50;68.00;;;;;;10416959;28;20104;-55
2021/08/12 08:43:42;;;;;;;6.43;3.90;;;21.50;68.00;;;;;;10415207;28;20113;-55
2021/08/12 08:48:45;;;;;;;9.95;5.90;;;21.50;68.00;;;;;;10417022;28;20025;-56
2021/08/12 08:53:47;;;;;;;6.68;4.60;;;21.50;68.00;;;;;;10415435;28;20048;-55
2021/08/12 08:58:48;;;;;;;8.30;4.60;;;21.50;68.00;;;;;;10431730;28;20063;-54
2021/08/12 09:03:49;;;;;;;5.68;4.22;;;21.50;68.00;;;;;;10431600;28;20044;-56
2021/08/12 09:08:50;;;;;;;8.77;4.53;;;21.60;68.00;;;;;;10416118;28;20096;-55
2021/08/12 09:13:51;;;;;;;6.93;4.63;;;21.60;67.90;;;;;;10416141;28;20032;-56
2021/08/12 09:19:12;;;;;;;5.85;4.53;;;21.60;68.00;;;;;;10415826;28;20034;-54
2021/08/12 09:24:13;;;;;;;7.03;4.35;;;21.60;67.90;;;;;;10413389;28;20025;-54
2021/08/12 09:29:33;;;;;;;6.60;4.20;;;21.60;68.00;;;;;;10414770;28;20417;-55
2021/08/12 09:34:45;;;;;;;7.75;5.00;;;21.60;68.00;;;;;;10413122;28;20052;-56
2021/08/12 09:39:46;;;;;;;9.05;5.10;;;21.70;68.00;;;;;;10411922;28;20068;-55
2021/08/12 09:44:52;;;;;;;6.38;5.30;;;21.70;68.10;;;;;;10411896;28;20024;-55
2021/08/12 09:49:56;;;;;;;6.95;4.88;;;21.70;67.80;;;;;;10427916;28;20057;-55
2021/08/12 09:55:14;;;;;;;5.85;4.35;;;21.70;67.80;;;;;;10411014;28;20108;-55
2021/08/12 10:00:30;;;;;;;10.17;4.70;;;21.80;67.90;;;;;;10410638;28;20112;-55
2021/08/12 10:05:35;;;;;;;6.63;5.20;;;21.80;67.80;;;;;;10411953;28;20048;-54
2021/08/12 10:10:38;;;;;;;6.35;4.13;;;21.80;67.80;;;;;;10412697;28;20022;-55
2021/08/12 10:15:40;;;;;;;6.72;4.68;;;21.80;67.70;;;;;;10412500;28;20018;-58
2021/08/12 10:20:44;;;;;;;8.15;4.35;;;21.80;67.70;;;;;;10425476;28;20094;-57
2021/08/12 10:25:57;;;;;;;6.88;4.63;;;21.80;67.90;;;;;;10413505;28;20034;-57
2021/08/12 10:30:59;;;;;;;8.23;4.35;;;21.90;68.00;;;;;;10414610;28;20024;-58
2021/08/12 10:36:01;;;;;;;4.47;3.58;;;21.90;67.90;;;;;;10407551;28;20044;-57
2021/08/12 10:41:04;;;;;;;7.75;4.75;;;21.90;67.80;;;;;;10412556;28;20042;-55
2021/08/12 10:46:04;;;;;;;7.32;4.55;;;22.00;67.90;;;;;;10412277;28;20052;-54
2021/08/12 10:51:12;;;;;;;5.72;4.50;;;22.00;68.00;;;;;;10413462;28;20029;-55
2021/08/12 10:56:20;;;;;;;7.30;4.43;;;22.00;67.80;;;;;;10413411;28;20033;-54
2021/08/12 11:01:33;;;;;;;6.50;4.28;;;22.10;67.90;;;;;;10413287;28;20033;-55
2021/08/12 11:06:42;;;;;;;8.43;4.65;;;22.10;67.80;;;;;;10429063;28;20018;-56
2021/08/12 11:11:42;;;;;;;6.25;4.03;;;22.10;67.80;;;;;;10420835;28;20442;-55
2021/08/12 11:16:45;;;;;;;6.28;4.22;;;22.10;67.70;;;;;;10420579;28;20057;-54
2021/08/12 11:21:47;;;;;;;5.28;4.05;;;22.10;67.80;;;;;;10420493;28;20025;-53
2021/08/12 11:26:47;;;;;;;5.90;4.00;;;22.20;67.80;;;;;;10419782;28;20104;-54
2021/08/12 11:31:48;;;;;;;4.88;3.90;;;22.20;67.80;;;;;;10422694;28;20120;-54
2021/08/12 11:37:14;;;;;;;4.68;3.67;;;22.10;67.70;;;;;;10418566;28;20087;-54
2021/08/12 11:42:29;;;;;;;6.85;3.70;;;22.10;67.70;;;;;;10417520;28;20052;-55
2021/08/12 11:47:30;;;;;;;5.75;4.10;;;22.20;67.80;;;;;;10415911;28;20109;-53
2021/08/12 11:52:36;;;;;;;4.85;3.92;;;22.20;67.90;;;;;;10417785;28;20397;-55
2021/08/12 11:57:55;;;;;;;6.82;5.05;;;22.20;67.90;;;;;;10419549;28;20067;-53
2021/08/12 12:03:01;;;;;;;6.53;4.90;;;22.20;68.40;;;;;;10417746;28;20036;-56
2021/08/12 12:08:11;;;;;;;9.93;4.65;;;22.20;68.20;;;;;;10416655;28;20045;-51
2021/08/12 12:13:16;;;;;;;10.48;4.85;;;22.20;68.40;;;;;;10416853;28;20404;-53
2021/08/12 12:18:37;;;;;;;10.45;5.13;;;22.20;68.50;;;;;;10417020;28;20029;-53
2021/08/12 12:23:47;;;;;;;6.53;4.72;;;22.20;68.50;;;;;;10424375;28;20026;-54
2021/08/12 12:28:49;;;;;;;10.20;4.47;;;22.20;68.50;;;;;;10417315;28;20025;-53
2021/08/12 12:33:57;;;;;;;9.73;5.30;;;22.20;68.50;;;;;;10420632;28;20490;-53
2021/08/12 12:38:59;;;;;;;8.60;5.45;;;22.20;68.60;;;;;;10412595;28;20386;-53
2021/08/12 12:44:11;;;;;;;8.48;4.50;;;22.20;68.70;;;;;;10419802;28;20030;-52
2021/08/12 12:49:30;;;;;;;9.45;5.43;;;22.20;68.70;;;;;;10415158;28;20052;-55
2021/08/12 12:54:37;;;;;;;11.13;5.13;;;22.20;68.40;;;;;;10412556;28;20032;-54
2021/08/12 12:59:37;;;;;;;9.88;5.75;;;22.20;68.60;;;;;;10411213;28;20025;-55
2021/08/12 13:04:38;;;;;;;5.97;4.22;;;22.30;68.50;;;;;;10405113;28;20034;-53
2021/08/12 13:09:39;;;;;;;6.20;4.55;;;22.30;68.50;;;;;;10394909;28;20068;-55
2021/08/12 13:14:40;;;;;;;10.60;4.40;;;22.20;68.40;;;;;;10407675;28;20048;-54
2021/08/12 13:19:41;;;;;;;8.27;5.10;;;22.20;68.50;;;;;;10414923;28;20061;-54
2021/08/12 13:24:41;;;;;;;6.55;4.97;;;22.20;68.50;;;;;;10414886;28;20444;-54
2021/08/12 13:29:42;;;;;;;7.90;4.82;;;22.20;68.50;;;;;;10413996;28;20064;-54
2021/08/12 13:34:44;;;;;;;7.82;4.80;;;22.20;68.60;;;;;;10415215;28;20452;-54
2021/08/12 13:39:45;;;;;;;6.20;4.75;;;22.10;68.60;;;;;;10414381;28;20045;-54
2021/08/12 13:44:46;;;;;;;8.23;5.00;;;22.20;68.60;;;;;;10414158;28;20447;-54
2021/08/12 13:49:47;;;;;;;5.60;4.05;;;22.20;68.70;;;;;;10413639;28;20382;-54
2021/08/12 13:54:48;;;;;;;11.10;4.72;;;22.20;68.70;;;;;;10413549;28;20044;-52
2021/08/12 13:59:49;;;;;;;10.38;4.78;;;22.20;69.70;;;;;;10401044;28;20029;-54
2021/08/12 14:04:49;;;;;;;9.77;4.57;;;22.20;69.70;;;;;;10413277;28;20041;-54
2021/08/12 14:09:51;;;;;;;10.48;4.95;;;22.20;69.70;;;;;;10413924;28;20077;-56
2021/08/12 14:14:52;;;;;;;10.77;5.20;;;22.20;70.00;;;;;;10411649;28;20135;-53
2021/08/12 14:19:52;;;;;;;11.52;5.78;;;22.30;70.40;;;;;;10412763;28;20036;-53
2021/08/12 14:24:53;;;;;;;14.07;5.63;;;22.30;70.70;;;;;;10413154;28;20073;-50
2021/08/12 14:29:54;;;;;;;12.95;5.63;;;22.30;70.80;;;;;;10413570;28;20037;-53
2021/08/12 14:34:54;;;;;;;15.77;6.15;;;22.30;70.60;;;;;;10419339;28;20504;-49
2021/08/12 14:39:55;;;;;;;15.25;5.68;;;22.30;70.70;;;;;;10413759;28;20103;-50
2021/08/12 14:44:56;;;;;;;13.93;5.75;;;22.30;70.90;;;;;;10413102;28;20026;-50
2021/08/12 14:49:56;;;;;;;9.60;5.55;;;22.30;70.90;;;;;;10420652;28;20116;-53
2021/08/12 14:54:57;;;;;;;8.93;5.72;;;22.30;71.00;;;;;;10420403;28;20032;-49
2021/08/12 14:59:58;;;;;;;10.18;5.30;;;22.30;71.10;;;;;;10420792;28;20064;-49
2021/08/12 15:04:59;;;;;;;6.40;4.68;;;22.30;71.10;;;;;;10420647;28;20160;-48
2021/08/12 15:10:00;;;;;;;9.52;5.38;;;22.30;71.10;;;;;;10420988;28;20025;-49
2021/08/12 15:15:01;;;;;;;8.85;5.72;;;22.30;71.10;;;;;;10434754;28;20501;-49
2021/08/12 15:20:03;;;;;;;13.73;6.75;;;22.40;71.10;;;;;;10420737;28;20036;-51
2021/08/12 15:25:04;;;;;;;11.88;5.15;;;22.30;71.10;;;;;;10419312;28;20029;-51
2021/08/12 15:30:06;;;;;;;10.80;5.35;;;22.30;71.20;;;;;;10420536;28;20048;-53
2021/08/12 15:35:08;;;;;;;10.35;5.53;;;22.40;71.40;;;;;;10428293;28;20033;-51
2021/08/12 15:40:09;;;;;;;8.18;5.50;;;22.30;72.20;;;;;;10416484;28;20060;-53
2021/08/12 15:45:10;;;;;;;13.65;5.25;;;22.40;71.40;;;;;;10419213;28;20088;-51
2021/08/12 15:50:12;;;;;;;14.43;5.63;;;22.30;71.30;;;;;;10419308;28;20026;-51
2021/08/12 15:55:13;;;;;;;12.75;6.20;;;22.30;71.50;;;;;;10411662;28;20136;-55
2021/08/12 16:00:14;;;;;;;12.88;10.10;;;22.40;70.90;;;;;;10410320;28;20375;-50
2021/08/12 16:05:15;;;;;;;14.45;6.70;;;22.40;70.10;;;;;;10414422;28;20107;-53
2021/08/12 16:10:16;;;;;;;13.75;8.32;;;22.40;71.40;;;;;;10413567;28;20033;-52
2021/08/12 16:15:16;;;;;;;11.25;8.02;;;22.40;72.10;;;;;;10417824;28;20037;-55
2021/08/12 16:20:17;;;;;;;11.75;7.75;;;22.50;72.30;;;;;;10418409;28;20490;-56
2021/08/12 16:25:18;;;;;;;10.35;7.60;;;22.50;72.30;;;;;;10417449;28;20116;-56
2021/08/12 16:30:19;;;;;;;12.13;7.80;;;22.50;72.40;;;;;;10417627;28;20030;-56
2021/08/12 16:35:20;;;;;;;19.33;8.85;;;22.50;72.40;;;;;;10426099;28;20390;-55
2021/08/12 16:40:21;;;;;;;12.80;7.65;;;22.50;72.40;;;;;;10416813;28;20048;-56
2021/08/12 16:45:21;;;;;;;12.50;7.50;;;22.50;72.40;;;;;;10414391;28;20451;-53
2021/08/12 16:50:22;;;;;;;11.32;7.03;;;22.50;72.20;;;;;;10426634;28;20086;-52
2021/08/12 16:55:23;;;;;;;9.02;7.30;;;22.40;71.40;;;;;;10409999;28;20132;-54
2021/08/12 17:00:24;;;;;;;10.90;6.88;;;22.40;71.60;;;;;;10412475;28;20491;-54
2021/08/12 17:05:24;;;;;;;11.32;6.95;;;22.40;71.60;;;;;;10412677;28;20556;-51
2021/08/12 17:10:25;;;;;;;8.20;6.50;;;22.40;71.60;;;;;;10414640;28;20029;-55
2021/08/12 17:15:26;;;;;;;9.32;7.18;;;22.40;71.60;;;;;;10415371;28;20030;-54
2021/08/12 17:20:27;;;;;;;9.38;6.22;;;22.40;71.50;;;;;;10413814;28;20044;-55
2021/08/12 17:25:28;;;;;;;9.20;6.65;;;22.30;71.40;;;;;;10414880;28;20041;-55
2021/08/12 17:30:28;;;;;;;10.23;6.40;;;22.40;71.40;;;;;;10414533;28;20025;-56
2021/08/12 17:35:29;;;;;;;7.95;7.15;;;22.30;71.30;;;;;;10415279;28;20021;-55
2021/08/12 17:40:30;;;;;;;11.13;6.57;;;22.30;71.30;;;;;;10413374;28;20041;-55
2021/08/12 17:45:33;;;;;;;9.50;7.10;;;22.30;71.40;;;;;;10413863;28;20042;-55
2021/08/12 17:50:34;;;;;;;7.18;6.47;;;22.30;71.50;;;;;;10429570;28;20551;-56
2021/08/12 17:55:36;;;;;;;6.57;5.55;;;22.40;71.40;;;;;;10413958;28;20057;-55
2021/08/12 18:00:36;;;;;;;9.55;6.82;;;22.40;71.20;;;;;;10413794;28;20100;-56
2021/08/12 18:05:39;;;;;;;7.90;6.40;;;22.40;71.30;;;;;;10412188;28;20108;-54
2021/08/12 18:10:41;;;;;;;10.25;7.70;;;22.30;71.30;;;;;;10410911;28;20069;-55
2021/08/12 18:15:42;;;;;;;9.68;6.78;;;22.30;72.00;;;;;;10411117;28;20398;-55
2021/08/12 18:20:45;;;;;;;7.97;5.95;;;22.30;71.50;;;;;;10412008;28;20039;-55
2021/08/12 18:25:46;;;;;;;7.93;6.50;;;22.30;71.60;;;;;;10412123;28;20109;-56
2021/08/12 18:30:46;;;;;;;7.82;6.25;;;22.30;71.70;;;;;;10412617;28;20027;-55
2021/08/12 18:35:47;;;;;;;8.43;6.75;;;22.30;71.70;;;;;;10413366;28;20031;-56
2021/08/12 18:40:48;;;;;;;7.97;6.70;;;22.30;71.70;;;;;;10411788;28;20092;-56
2021/08/12 18:45:48;;;;;;;8.88;6.10;;;22.30;71.80;;;;;;10412319;28;20038;-56
2021/08/12 18:50:49;;;;;;;8.68;6.72;;;22.20;71.70;;;;;;10413653;28;20101;-56
2021/08/12 18:55:50;;;;;;;8.05;6.57;;;22.30;71.80;;;;;;10413801;28;20061;-56
2021/08/12 19:00:51;;;;;;;8.13;6.18;;;22.30;71.80;;;;;;10413185;28;20086;-56
2021/08/12 19:05:52;;;;;;;7.95;6.95;;;22.20;72.40;;;;;;10413373;28;20144;-56
2021/08/12 19:10:52;;;;;;;9.77;6.80;;;22.20;72.00;;;;;;10412780;28;20060;-57
2021/08/12 19:15:53;;;;;;;13.93;7.70;;;22.20;72.00;;;;;;10412235;28;20053;-55
2021/08/12 19:20:54;;;;;;;9.57;7.65;;;22.30;72.40;;;;;;10412003;28;20224;-56
2021/08/12 19:25:55;;;;;;;8.68;7.60;;;22.30;72.70;;;;;;10412571;28;20046;-56
2021/08/12 19:30:57;;;;;;;8.63;7.28;;;22.30;72.30;;;;;;10406413;28;20053;-56
2021/08/12 19:35:57;;;;;;;8.98;7.25;;;22.30;72.30;;;;;;10419231;28;20396;-56
2021/08/12 19:40:58;;;;;;;9.55;7.93;;;22.20;72.40;;;;;;10418012;28;20072;-56
2021/08/12 19:45:59;;;;;;;9.77;7.25;;;22.20;72.50;;;;;;10427224;28;20500;-55
2021/08/12 19:50:59;;;;;;;8.00;7.07;;;22.20;72.50;;;;;;10417813;28;20359;-56
2021/08/12 19:56:00;;;;;;;8.63;7.40;;;22.20;72.60;;;;;;10433822;28;20025;-56
2021/08/12 20:01:00;;;;;;;10.05;7.57;;;22.20;72.50;;;;;;10416579;28;20109;-56
2021/08/12 20:06:01;;;;;;;9.30;7.82;;;22.20;72.50;;;;;;10416728;28;20120;-56
2021/08/12 20:11:05;;;;;;;8.05;7.25;;;22.20;72.40;;;;;;10417500;28;20082;-56
2021/08/12 20:16:05;;;;;;;8.00;7.20;;;22.20;72.40;;;;;;10416955;28;20029;-56
2021/08/12 20:21:06;;;;;;;10.77;8.13;;;22.20;72.30;;;;;;10416250;28;20044;-56
2021/08/12 20:26:07;;;;;;;8.82;7.75;;;22.20;72.20;;;;;;10421949;28;20112;-56
2021/08/12 20:31:11;;;;;;;8.90;8.00;;;22.20;72.20;;;;;;10421481;28;20036;-57
2021/08/12 20:36:12;;;;;;;8.35;7.55;;;22.30;72.30;;;;;;10417704;28;20025;-56
2021/08/12 20:41:13;;;;;;;8.27;7.47;;;22.20;72.30;;;;;;10416108;28;20050;-56
2021/08/12 20:46:15;;;;;;;8.38;7.57;;;22.20;72.30;;;;;;10417064;28;20116;-56
2021/08/12 20:51:17;;;;;;;9.27;7.53;;;22.20;72.30;;;;;;10417202;28;20112;-56
2021/08/12 20:56:17;;;;;;;9.00;7.90;;;22.20;72.30;;;;;;10416806;28;20386;-56
2021/08/12 21:01:19;;;;;;;8.30;7.38;;;22.20;72.20;;;;;;10415477;28;20037;-56
2021/08/12 21:06:19;;;;;;;8.30;6.78;;;22.20;72.30;;;;;;10432100;28;20101;-56
2021/08/12 21:11:20;;;;;;;8.77;7.88;;;22.20;72.20;;;;;;10416180;28;20026;-56
2021/08/12 21:16:21;;;;;;;9.48;8.52;;;22.20;72.20;;;;;;10415984;28;20124;-56
2021/08/12 21:21:23;;;;;;;8.55;7.50;;;22.20;72.20;;;;;;10415482;28;20033;-56
2021/08/12 21:26:23;;;;;;;9.18;7.55;;;22.20;72.20;;;;;;10414549;28;20033;-56
2021/08/12 21:31:24;;;;;;;8.77;7.45;;;22.20;72.20;;;;;;10419751;28;20496;-56
2021/08/12 21:36:25;;;;;;;10.00;7.50;;;22.20;72.10;;;;;;10415149;28;20138;-56
2021/08/12 21:41:25;;;;;;;8.52;7.63;;;22.20;72.00;;;;;;10416860;28;20068;-56
2021/08/12 21:46:26;;;;;;;8.18;7.38;;;22.20;72.00;;;;;;10414544;28;20083;-56
2021/08/12 21:51:27;;;;;;;8.52;7.63;;;22.20;72.00;;;;;;10415297;28;20053;-56
2021/08/12 21:56:27;;;;;;;8.52;7.22;;;22.20;72.00;;;;;;10413679;28;20377;-55
2021/08/12 22:01:29;;;;;;;8.35;7.43;;;22.20;71.90;;;;;;10413092;28;20037;-56
2021/08/12 22:06:30;;;;;;;8.15;7.05;;;22.10;71.80;;;;;;10413599;28;20038;-56
2021/08/12 22:11:31;;;;;;;7.63;6.82;;;22.10;71.80;;;;;;10429905;28;20112;-55
2021/08/12 22:16:32;;;;;;;7.70;6.70;;;22.10;71.80;;;;;;10414001;28;20041;-56
2021/08/12 22:21:32;;;;;;;8.55;7.65;;;22.10;71.80;;;;;;10414349;28;20116;-56
2021/08/12 22:26:34;;;;;;;8.73;7.63;;;22.10;71.80;;;;;;10413516;28;20108;-56
2021/08/12 22:31:36;;;;;;;8.02;7.25;;;22.10;71.80;;;;;;10405211;28;20029;-56
2021/08/12 22:36:37;;;;;;;8.77;7.15;;;22.10;71.80;;;;;;10413977;28;20021;-56
2021/08/12 22:41:38;;;;;;;9.32;7.50;;;22.10;71.80;;;;;;10417979;28;20504;-56
2021/08/12 22:46:39;;;;;;;9.68;7.10;;;22.10;71.80;;;;;;10413278;28;20038;-55
2021/08/12 22:51:39;;;;;;;8.75;6.88;;;22.10;71.80;;;;;;10413784;28;20461;-56
2021/08/12 22:56:40;;;;;;;7.95;7.15;;;22.10;71.80;;;;;;10413764;28;20057;-56
2021/08/12 23:01:41;;;;;;;7.97;7.18;;;22.10;71.80;;;;;;10413746;28;20100;-56
2021/08/12 23:06:41;;;;;;;8.38;6.72;;;22.10;71.70;;;;;;10420112;28;20098;-56
2021/08/12 23:11:42;;;;;;;7.05;6.35;;;22.10;71.70;;;;;;10418245;28;20037;-56
2021/08/12 23:16:43;;;;;;;8.70;7.90;;;22.10;71.70;;;;;;10420914;28;20494;-56
2021/08/12 23:21:44;;;;;;;8.05;7.25;;;22.10;71.80;;;;;;10420128;28;20493;-56
2021/08/12 23:26:45;;;;;;;7.75;6.95;;;22.10;71.80;;;;;;10420141;28;20033;-56
2021/08/12 23:31:45;;;;;;;8.40;7.43;;;22.10;71.70;;;;;;10410596;28;20038;-56
2021/08/12 23:36:47;;;;;;;8.13;7.13;;;22.10;71.80;;;;;;10429193;28;20109;-56
2021/08/12 23:41:47;;;;;;;7.65;6.80;;;22.00;71.70;;;;;;10421372;28;20041;-56
2021/08/12 23:46:48;;;;;;;8.38;7.57;;;22.10;71.80;;;;;;10416178;28;20527;-56
2021/08/12 23:51:49;;;;;;;7.38;6.68;;;22.00;71.80;;;;;;10419713;28;20032;-56
2021/08/12 23:56:51;;;;;;;7.78;6.90;;;22.00;71.60;;;;;;10419399;28;20041;-56
